Time;durP1;ratioP1;P1;durP2;ratioP2;P2;SDS_P1;SDS_P2;PMS_P1;PMS_P2;Temp;Humidity;BMP_temperature;BMP_pressure;BME280_temperature;BME280_humidity;BME280_pressure;Samples;Min_cycle;Max_cycle;Signal;HPM_P1;HPM_P2
2022/09/14 00:00:52;;;;;;;2.63;1.30;;;;;;;14.98;65.83;99576.56;5054428;28;20423;-50
2022/09/14 00:03:38;;;;;;;5.15;2.58;;;;;;;14.95;65.67;99572.31;5058574;28;20056;-57
2022/09/14 00:06:08;;;;;;;2.75;2.33;;;;;;;14.95;65.28;99571.44;5051340;28;20052;-57
2022/09/14 00:08:35;;;;;;;3.85;2.40;;;;;;;14.91;65.61;99570.69;5047723;28;20167;-57
2022/09/14 00:11:07;;;;;;;6.60;2.40;;;;;;;14.88;65.34;99571.63;5054676;28;20175;-54
2022/09/14 00:13:35;;;;;;;4.00;1.85;;;;;;;14.86;65.54;99570.81;5055269;28;20447;-56
2022/09/14 00:16:05;;;;;;;4.10;2.30;;;;;;;14.83;65.53;99567.44;5055891;28;20127;-57
2022/09/14 00:18:33;;;;;;;;;;;;;;;14.61;66.25;99558.44;5060898;28;20045;-58
2022/09/14 00:21:03;;;;;;;5.30;1.98;;;;;;;14.72;66.01;99557.28;5056361;28;19921;-56
2022/09/14 00:23:31;;;;;;;2.95;1.92;;;;;;;14.72;65.92;99555.53;5053053;28;20508;-52
2022/09/14 00:26:07;;;;;;;4.00;2.92;;;;;;;14.69;65.96;99553.00;5045327;28;20057;-57
2022/09/14 00:28:37;;;;;;;4.60;2.38;;;;;;;14.69;66.39;99557.38;5045417;28;20049;-56
2022/09/14 00:31:06;;;;;;;6.47;2.30;;;;;;;14.64;65.87;99553.16;5041993;28;20049;-53
2022/09/14 00:33:36;;;;;;;3.88;2.50;;;;;;;14.60;66.53;99551.53;5044857;28;20047;-58
2022/09/14 00:36:06;;;;;;;5.78;2.40;;;;;;;14.57;66.69;99538.56;5044694;28;20055;-57
2022/09/14 00:38:35;;;;;;;4.38;2.05;;;;;;;14.54;66.97;99530.84;5044254;28;20061;-56
2022/09/14 00:41:03;;;;;;;3.60;2.55;;;;;;;14.51;66.98;99525.69;5045165;28;20132;-57
2022/09/14 00:43:30;;;;;;;5.38;1.92;;;;;;;14.49;66.64;99522.31;5046516;28;20124;-57
2022/09/14 00:46:01;;;;;;;2.95;2.30;;;;;;;14.48;66.32;99525.78;5059983;28;20054;-57
2022/09/14 00:48:29;;;;;;;3.22;2.50;;;;;;;14.45;66.31;99526.72;5059058;28;20045;-56
2022/09/14 00:50:56;;;;;;;4.10;2.53;;;;;;;14.45;66.84;99518.06;5041444;28;20790;-55
2022/09/14 00:53:22;;;;;;;3.67;2.55;;;;;;;14.44;67.07;99518.94;5043949;28;20057;-57
2022/09/14 00:55:52;;;;;;;5.43;1.83;;;;;;;14.42;66.50;99515.53;5043200;28;20579;-57
2022/09/14 00:58:20;;;;;;;4.30;2.40;;;;;;;14.41;67.26;99509.47;5041278;28;20133;-57
2022/09/14 01:00:47;;;;;;;3.90;2.33;;;;;;;14.38;66.46;99505.19;5042654;28;20143;-54
2022/09/14 01:03:13;;;;;;;2.45;2.03;;;;;;;14.38;66.75;99505.19;5043862;28;20499;-58
2022/09/14 01:14:33;;;;;;;2.40;1.50;;;;;;;14.34;67.57;99495.75;5089069;27;20401;-52
2022/09/14 01:28:05;;;;;;;3.30;1.65;;;;;;;14.23;66.76;99474.34;5051906;27;20732;-55
2022/09/14 01:30:35;;;;;;;5.72;2.13;;;;;;;14.22;67.31;99470.88;4999196;28;20073;-55
2022/09/14 01:33:12;;;;;;;4.43;1.60;;;;;;;14.21;67.38;99476.13;5005654;28;20140;-57
2022/09/14 01:35:48;;;;;;;4.65;1.83;;;;;;;14.19;67.18;99470.13;5000649;28;20041;-57
2022/09/14 01:41:00;;;;;;;4.65;2.05;;;;;;;14.19;67.24;99468.38;5043314;28;20400;-57
2022/09/14 01:43:58;;;;;;;5.97;1.83;;;;;;;14.09;67.54;99467.75;5044375;28;20049;-57
2022/09/14 01:46:33;;;;;;;3.08;1.80;;;;;;;14.12;67.09;99462.47;5051526;28;20080;-57
2022/09/14 01:49:10;;;;;;;3.72;2.40;;;;;;;14.12;67.49;99462.47;5053412;28;20448;-58
2022/09/14 01:56:56;;;;;;;5.00;2.03;;;;;;;14.09;67.34;99465.16;5025649;27;20751;-54
2022/09/14 01:59:26;;;;;;;3.72;1.40;;;;;;;14.09;67.04;99462.53;5015842;28;20061;-54
2022/09/14 02:02:01;;;;;;;6.35;1.90;;;;;;;14.08;67.62;99460.84;5019854;28;20077;-58
2022/09/14 02:04:43;;;;;;;4.10;1.85;;;;;;;14.06;66.82;99456.59;5014470;28;20523;-56
2022/09/14 02:07:10;;;;;;;3.58;2.15;;;;;;;14.05;67.09;99455.72;5017771;28;20539;-57
2022/09/14 02:09:37;;;;;;;4.00;1.52;;;;;;;14.03;67.81;99454.06;5017341;28;20054;-57
2022/09/14 02:12:04;;;;;;;5.50;2.25;;;;;;;14.03;67.84;99451.44;5020966;28;20132;-56
2022/09/14 02:14:31;;;;;;;5.13;2.20;;;;;;;14.00;66.97;99448.06;5020364;28;20145;-54
2022/09/14 02:16:58;;;;;;;5.00;1.75;;;;;;;13.99;67.32;99450.69;5018671;28;20084;-52
2022/09/14 02:19:32;;;;;;;5.10;1.77;;;;;;;13.97;67.02;99457.66;5020061;28;20195;-54
2022/09/14 02:21:58;;;;;;;4.22;1.98;;;;;;;13.96;67.29;99450.78;5017811;28;20050;-53
2022/09/14 02:24:26;;;;;;;6.45;1.60;;;;;;;13.94;67.76;99443.00;5019125;28;20064;-58
2022/09/14 02:26:55;;;;;;;5.72;2.22;;;;;;;13.93;66.86;99441.28;5021608;28;20049;-55
2022/09/14 02:29:22;;;;;;;5.78;1.90;;;;;;;13.92;67.29;99441.34;5011878;28;20072;-57
2022/09/14 02:32:03;;;;;;;7.95;3.05;;;;;;;13.86;67.28;99438.00;5020485;28;20446;-58
2022/09/14 02:39:55;;;;;;;6.72;3.70;;;;;;;13.81;66.86;99421.63;5044099;28;20406;-56
2022/09/14 02:51:18;;;;;;;3.38;1.75;;;;;;;13.80;67.97;99430.34;5030507;28;20414;-57
2022/09/14 02:59:10;;;;;;;4.68;2.47;;;;;;;13.73;67.65;99423.59;5013642;28;20419;-56
2022/09/14 03:01:36;;;;;;;4.88;2.47;;;;;;;13.66;67.59;99419.44;4996576;28;20072;-54
2022/09/14 03:04:03;;;;;;;5.40;2.40;;;;;;;13.59;67.33;99419.59;4999270;28;20082;-58
2022/09/14 03:06:30;;;;;;;5.97;2.53;;;;;;;13.56;68.07;99424.00;5002119;28;20137;-56
2022/09/14 03:08:57;;;;;;;4.65;2.28;;;;;;;13.50;68.22;99422.41;4996780;28;20145;-58
2022/09/14 03:11:23;;;;;;;6.05;3.20;;;;;;;13.46;68.37;99418.16;5000258;28;20441;-54
2022/09/14 03:13:50;;;;;;;3.47;2.25;;;;;;;13.41;68.33;99415.66;4999117;28;20080;-55
2022/09/14 03:16:17;;;;;;;8.55;2.53;;;;;;;13.40;68.34;99415.72;4999876;28;20050;-56
2022/09/14 03:18:44;;;;;;;4.97;2.33;;;;;;;13.35;68.38;99419.25;4998306;28;20488;-56
2022/09/14 03:21:14;;;;;;;8.05;2.55;;;;;;;13.33;68.64;99420.19;4996860;28;20512;-54
2022/09/14 03:23:44;;;;;;;6.82;2.90;;;;;;;13.30;67.72;99417.66;4995097;28;20081;-56
2022/09/14 03:26:14;;;;;;;5.53;2.17;;;;;;;13.27;68.51;99410.78;4996933;28;20137;-57
2022/09/14 03:28:41;;;;;;;4.72;2.40;;;;;;;13.24;68.52;99401.31;4995071;28;20432;-57
2022/09/14 03:31:09;;;;;;;9.90;3.30;;;;;;;13.22;67.82;99412.66;4998040;28;20620;-57
2022/09/14 03:33:36;;;;;;;5.40;2.58;;;;;;;13.14;68.28;99410.22;4997134;28;20055;-55
2022/09/14 03:36:19;;;;;;;3.97;2.28;;;;;;;13.04;68.03;99409.59;4999522;28;20046;-55
2022/09/14 03:38:47;;;;;;;;;;;;;;;12.90;69.13;99407.31;4998959;28;20065;-57
2022/09/14 03:41:14;;;;;;;4.38;2.03;;;;;;;13.04;68.71;99399.19;4998194;28;19944;-57
2022/09/14 03:43:42;;;;;;;5.82;2.38;;;;;;;13.06;67.95;99397.44;4995897;28;20066;-57
2022/09/14 03:46:11;;;;;;;4.22;2.30;;;;;;;13.06;67.74;99397.44;4996135;28;20053;-57
2022/09/14 03:48:38;;;;;;;6.38;2.72;;;;;;;13.04;67.96;99396.59;5002531;28;20053;-56
2022/09/14 03:51:06;;;;;;;9.40;3.33;;;;;;;13.05;67.92;99403.53;4996676;28;20480;-54
2022/09/14 03:53:33;;;;;;;5.95;2.28;;;;;;;13.03;68.48;99400.09;4994713;28;20069;-52
2022/09/14 03:56:00;;;;;;;7.55;2.20;;;;;;;13.02;67.80;99406.19;4997507;28;20136;-56
2022/09/14 03:58:30;;;;;;;7.60;2.67;;;;;;;13.02;68.49;99405.31;5000673;28;20470;-56
2022/09/14 04:01:03;;;;;;;5.93;2.15;;;;;;;12.99;68.85;99411.47;4998592;28;20057;-56
2022/09/14 04:03:30;;;;;;;8.98;3.33;;;;;;;12.98;67.97;99409.75;4998942;28;20152;-56
2022/09/14 04:05:57;;;;;;;8.23;2.35;;;;;;;12.96;67.85;99406.31;4995961;28;20046;-53
2022/09/14 04:08:24;;;;;;;7.03;2.50;;;;;;;12.93;68.45;99403.78;4993998;28;20057;-52
2022/09/14 04:10:51;;;;;;;8.25;2.20;;;;;;;12.91;68.33;99403.84;4986732;28;20175;-57
2022/09/14 04:13:17;;;;;;;8.23;2.50;;;;;;;12.89;67.68;99409.94;4984362;28;20078;-52
2022/09/14 04:15:54;;;;;;;5.85;2.38;;;;;;;12.87;68.93;99403.94;4984496;28;20066;-52
2022/09/14 04:18:20;;;;;;;5.78;2.42;;;;;;;12.82;68.72;99404.03;4984632;28;20112;-57
2022/09/14 04:20:55;;;;;;;4.43;2.30;;;;;;;12.78;68.80;99398.06;4983535;28;20133;-58
2022/09/14 04:23:33;;;;;;;5.75;2.40;;;;;;;12.77;67.88;99405.91;4983883;28;20141;-55
2022/09/14 04:26:16;;;;;;;8.02;2.15;;;;;;;12.74;68.78;99399.03;4982217;28;20046;-56
2022/09/14 04:28:44;;;;;;;5.15;2.33;;;;;;;12.72;67.98;99393.00;4987210;28;20057;-54
2022/09/14 04:31:12;;;;;;;6.90;2.42;;;;;;;12.69;67.98;99388.72;4984940;28;20820;-55
2022/09/14 04:33:41;;;;;;;6.28;2.33;;;;;;;12.69;67.76;99393.06;4984354;28;20081;-56
2022/09/14 04:36:12;;;;;;;7.43;1.80;;;;;;;12.67;67.70;99390.50;4990152;28;20047;-57
2022/09/14 04:38:40;;;;;;;5.90;2.30;;;;;;;12.66;68.86;99393.16;4983409;28;20133;-56
2022/09/14 04:41:10;;;;;;;6.35;1.85;;;;;;;12.64;68.29;99392.31;4987735;28;20089;-56
2022/09/14 04:43:38;;;;;;;3.72;1.98;;;;;;;12.60;68.48;99394.97;4962920;28;20146;-56
2022/09/14 04:46:08;;;;;;;6.53;2.67;;;;;;;12.57;69.12;99392.44;4985259;28;20485;-54
2022/09/14 04:48:35;;;;;;;4.45;2.28;;;;;;;12.50;69.43;99388.25;4982161;28;20054;-56
2022/09/14 04:51:05;;;;;;;4.22;2.55;;;;;;;12.49;69.36;99396.09;4983358;28;20101;-54
2022/09/14 04:53:32;;;;;;;;;;;;;;;12.27;68.87;99396.53;4985130;28;20131;-56
2022/09/14 04:56:00;;;;;;;5.75;2.30;;;;;;;12.37;69.39;99397.22;4985253;28;19926;-55
2022/09/14 04:58:27;;;;;;;6.95;2.22;;;;;;;12.34;68.44;99393.78;4986395;28;20053;-56
2022/09/14 05:01:00;;;;;;;5.53;2.25;;;;;;;12.33;68.47;99386.88;4983776;28;20521;-52
2022/09/14 05:03:27;;;;;;;7.13;2.30;;;;;;;12.32;69.16;99387.78;4988189;28;20074;-52
2022/09/14 05:05:53;;;;;;;6.65;2.10;;;;;;;12.31;68.82;99390.41;4987621;28;20043;-52
2022/09/14 05:08:20;;;;;;;7.00;2.50;;;;;;;12.30;68.87;99391.28;4986728;28;20129;-51
2022/09/14 05:10:46;;;;;;;6.60;3.60;;;;;;;12.28;69.13;99393.06;4986783;28;20466;-53
2022/09/14 05:13:15;;;;;;;5.97;3.22;;;;;;;12.25;68.70;99386.19;4985300;28;20459;-56
2022/09/14 05:15:41;;;;;;;6.55;2.47;;;;;;;12.24;69.61;99392.28;4983300;28;20046;-56
2022/09/14 05:18:08;;;;;;;5.50;2.20;;;;;;;12.22;68.67;99394.03;4984438;28;20050;-55
2022/09/14 05:20:34;;;;;;;6.20;2.53;;;;;;;12.17;68.35;99390.69;4983898;28;20054;-56
2022/09/14 05:23:01;;;;;;;5.22;1.80;;;;;;;12.14;69.37;99390.72;4981742;28;20128;-50
2022/09/14 05:25:27;;;;;;;5.30;2.13;;;;;;;12.12;68.79;99382.97;4983733;28;20065;-55
2022/09/14 05:27:54;;;;;;;7.70;1.90;;;;;;;12.08;69.09;99384.78;4985260;28;20134;-53
2022/09/14 05:30:21;;;;;;;3.88;1.90;;;;;;;12.08;69.25;99392.56;4982442;28;20057;-55
2022/09/14 05:32:47;;;;;;;4.82;2.35;;;;;;;12.07;69.84;99388.28;4984402;28;20089;-54
2022/09/14 05:35:14;;;;;;;5.90;2.55;;;;;;;12.06;68.96;99378.75;4986818;28;20060;-56
2022/09/14 05:37:40;;;;;;;3.47;1.88;;;;;;;12.05;69.72;99377.03;4987666;28;20137;-54
2022/09/14 05:40:07;;;;;;;5.72;2.08;;;;;;;12.05;69.42;99381.34;4985620;28;20066;-55
2022/09/14 05:42:34;;;;;;;5.30;2.22;;;;;;;12.02;69.80;99377.06;4987144;28;20125;-53
2022/09/14 05:45:01;;;;;;;7.72;3.90;;;;;;;12.01;68.82;99375.38;4981862;28;20455;-52
2022/09/14 05:47:29;;;;;;;4.55;1.98;;;;;;;12.00;69.66;99378.88;4980622;28;20057;-52
2022/09/14 05:49:56;;;;;;;6.45;1.95;;;;;;;11.99;68.86;99379.72;4978668;28;20054;-54
2022/09/14 05:52:23;;;;;;;5.75;2.42;;;;;;;12.00;69.41;99389.25;4980327;28;20069;-53
2022/09/14 05:54:49;;;;;;;7.93;2.88;;;;;;;12.01;69.15;99395.28;4981868;28;20141;-57
2022/09/14 05:57:16;;;;;;;8.35;2.67;;;;;;;12.01;69.72;99396.13;4985895;28;20560;-54
2022/09/14 05:59:43;;;;;;;4.75;2.80;;;;;;;12.01;69.22;99396.13;4981673;28;20058;-52
2022/09/14 06:02:09;;;;;;;6.88;2.33;;;;;;;12.02;69.48;99395.25;4981325;28;20133;-51
2022/09/14 06:04:40;;;;;;;7.60;2.55;;;;;;;12.03;69.75;99389.16;4974334;28;20054;-56
2022/09/14 06:07:07;;;;;;;6.50;2.45;;;;;;;12.05;69.72;99395.19;4978258;28;20062;-53
2022/09/14 06:09:44;;;;;;;7.00;2.70;;;;;;;12.08;69.52;99395.16;4977657;28;20050;-53
2022/09/14 06:12:13;;;;;;;6.78;2.50;;;;;;;12.13;69.52;99395.06;4979910;28;20145;-49
2022/09/14 06:14:39;;;;;;;6.43;2.65;;;;;;;12.17;70.49;99398.47;4981064;28;20074;-54
2022/09/14 06:17:06;;;;;;;7.38;2.35;;;;;;;12.19;70.43;99399.28;4979575;28;20054;-56
2022/09/14 06:19:33;;;;;;;6.03;3.00;;;;;;;12.23;71.10;99402.69;4981832;28;20050;-53
2022/09/14 06:21:59;;;;;;;7.20;3.97;;;;;;;12.26;71.13;99398.28;4987225;28;20128;-53
2022/09/14 06:24:26;;;;;;;6.88;3.35;;;;;;;12.30;70.91;99392.13;4980149;28;20105;-55
2022/09/14 06:26:53;;;;;;;7.28;3.17;;;;;;;12.31;69.95;99391.25;4986045;28;20058;-56
2022/09/14 06:29:19;;;;;;;8.95;3.58;;;;;;;12.32;70.69;99390.38;4980529;28;20077;-58
2022/09/14 06:31:46;;;;;;;9.27;3.55;;;;;;;12.34;70.39;99398.13;4982871;28;20149;-53
2022/09/14 06:34:12;;;;;;;9.55;4.15;;;;;;;12.36;70.91;99403.28;4987517;28;20129;-53
2022/09/14 06:36:39;;;;;;;9.93;3.72;;;;;;;12.37;71.03;99397.22;4979667;28;20078;-54
2022/09/14 06:39:05;;;;;;;8.02;3.53;;;;;;;12.39;69.74;99405.84;4981846;28;20264;-51
2022/09/14 06:41:33;;;;;;;8.43;3.78;;;;;;;12.39;69.84;99398.03;4979615;28;20162;-54
2022/09/14 06:44:00;;;;;;;10.43;4.10;;;;;;;12.41;69.70;99393.66;4977940;28;20490;-49
2022/09/14 06:46:30;;;;;;;11.45;5.07;;;;;;;12.43;69.70;99397.09;4979557;28;20046;-57
2022/09/14 06:49:04;;;;;;;8.57;5.60;;;;;;;12.43;69.60;99403.13;4977499;28;20419;-53
2022/09/14 06:51:37;;;;;;;8.60;4.03;;;;;;;12.44;70.72;99404.00;4980403;28;20046;-51
2022/09/14 06:54:04;;;;;;;9.30;3.92;;;;;;;12.46;69.90;99394.41;4978273;28;20141;-56
2022/09/14 06:56:34;;;;;;;7.80;4.18;;;;;;;12.47;70.28;99403.94;4978563;28;20081;-54
2022/09/14 06:59:01;;;;;;;10.25;3.40;;;;;;;12.46;70.02;99397.00;4979367;28;20129;-53
2022/09/14 07:01:28;;;;;;;9.32;4.18;;;;;;;12.46;70.65;99403.06;4980877;28;20042;-55
2022/09/14 07:03:57;;;;;;;6.85;3.72;;;;;;;12.47;71.50;99394.38;4975616;28;20055;-52
2022/09/14 07:06:25;;;;;;;9.48;3.90;;;;;;;12.48;70.82;99395.25;4980074;28;20590;-55
2022/09/14 07:08:53;;;;;;;11.50;5.22;;;;;;;12.79;71.42;99402.38;4978057;28;20142;-55
2022/09/14 07:11:22;;;;;;;11.18;5.20;;;;;;;13.81;71.51;99408.63;4978494;28;20525;-52
2022/09/14 07:13:49;;;;;;;11.07;5.72;;;;;;;14.97;69.81;99397.56;4960962;28;20469;-50
2022/09/14 07:16:16;;;;;;;10.48;4.57;;;;;;;16.00;68.15;99405.47;4977644;28;20423;-53
2022/09/14 07:18:43;;;;;;;8.52;4.15;;;;;;;16.88;66.26;99408.34;4980982;28;20046;-55
2022/09/14 07:21:13;;;;;;;8.07;3.70;;;;;;;17.55;64.26;99407.44;4980039;28;20089;-54
2022/09/14 07:23:43;;;;;;;6.13;3.70;;;;;;;18.22;63.06;99405.47;4979514;28;20085;-54
2022/09/14 07:28:52;;;;;;;9.93;4.65;;;;;;;19.40;61.00;99406.16;5084431;27;20416;-55
2022/09/14 07:31:27;;;;;;;7.75;4.43;;;;;;;20.06;59.87;99405.50;5048290;28;20728;-53
2022/09/14 07:33:56;;;;;;;6.57;5.07;;;;;;;20.70;58.36;99408.19;5079783;28;20057;-53
2022/09/14 07:36:24;;;;;;;7.68;4.22;;;;;;;21.27;57.19;99401.53;5088573;28;20476;-53
2022/09/14 07:38:52;;;;;;;7.05;4.10;;;;;;;21.81;56.12;99404.59;5088467;28;20052;-56
2022/09/14 07:41:20;;;;;;;6.25;4.25;;;;;;;22.34;54.97;99407.53;5101037;28;20054;-56
2022/09/14 07:43:48;;;;;;;7.20;4.75;;;;;;;22.71;53.14;99411.47;5116002;28;20131;-49
2022/09/14 07:46:15;;;;;;;6.68;3.80;;;;;;;23.04;52.58;99415.53;5111243;27;20100;-56
2022/09/14 07:48:42;;;;;;;8.60;4.28;;;;;;;23.19;51.73;99405.72;5111140;28;20035;-56
2022/09/14 07:51:10;;;;;;;7.50;4.43;;;;;;;23.33;51.02;99412.72;5115937;28;20043;-54
2022/09/14 07:53:39;;;;;;;8.75;4.22;;;;;;;23.40;50.16;99401.81;5115441;27;20140;-54
2022/09/14 07:56:07;;;;;;;8.73;4.50;;;;;;;23.44;50.08;99401.47;5114695;28;20123;-54
2022/09/14 07:58:34;;;;;;;8.98;6.40;;;;;;;23.47;49.25;99405.72;5116324;27;20533;-55
2022/09/14 08:01:10;;;;;;;6.90;4.50;;;;;;;23.29;49.70;99403.31;5114163;27;20126;-54
2022/09/14 08:03:40;;;;;;;7.30;4.68;;;;;;;22.79;50.64;99385.41;5110696;28;20066;-53
2022/09/14 08:06:11;;;;;;;7.05;4.03;;;;;;;22.31;50.67;99386.63;5114651;27;20406;-55
2022/09/14 08:08:40;;;;;;;6.32;4.47;;;;;;;21.93;51.88;99393.34;5119792;27;20510;-55
2022/09/14 08:11:11;;;;;;;10.30;4.65;;;;;;;22.03;52.51;99377.78;5120096;28;20130;-56
2022/09/14 08:13:41;;;;;;;8.75;4.10;;;;;;;22.27;52.13;99385.13;5110083;28;20431;-56
2022/09/14 08:16:08;;;;;;;8.98;4.93;;;;;;;22.71;51.54;99380.66;5111165;27;20047;-56
2022/09/14 08:18:37;;;;;;;11.43;5.60;;;;;;;23.16;50.87;99387.44;5113323;28;20465;-56
2022/09/14 08:21:05;;;;;;;9.23;4.72;;;;;;;23.61;50.26;99387.13;5114197;27;20495;-54
2022/09/14 08:23:33;;;;;;;9.52;5.68;;;;;;;24.07;49.43;99392.81;5110989;28;20043;-54
2022/09/14 08:26:09;;;;;;;10.73;6.28;;;;;;;24.51;50.07;99385.38;5119889;28;20043;-58
2022/09/14 08:28:37;;;;;;;7.50;5.07;;;;;;;24.91;49.03;99386.09;5114163;27;20072;-54
2022/09/14 08:33:43;;;;;;;9.65;4.20;;;;;;;25.55;47.81;99378.72;5069181;27;20407;-57
2022/09/14 08:36:12;;;;;;;8.98;4.50;;;;;;;25.92;47.04;99386.50;5016035;28;20133;-56
2022/09/14 08:38:39;;;;;;;7.80;3.40;;;;;;;26.27;46.97;99392.66;4987591;28;20066;-56
2022/09/14 08:41:15;;;;;;;7.90;3.78;;;;;;;26.55;46.42;99397.59;4987470;28;20038;-57
2022/09/14 08:43:41;;;;;;;;;;;;;;;26.85;46.22;99398.69;4984877;28;20137;-54
2022/09/14 08:46:18;;;;;;;8.00;3.88;;;;;;;26.89;45.35;99386.88;4997286;28;19922;-55
2022/09/14 08:48:48;;;;;;;9.15;3.67;;;;;;;26.88;44.65;99387.81;4993958;28;20141;-56
2022/09/14 08:51:14;;;;;;;;;;;;;;;26.97;44.95;99396.03;4999903;28;20077;-56
2022/09/14 08:53:41;;;;;;;6.28;3.53;;;;;;;26.98;45.45;99389.78;4995086;28;19928;-57
2022/09/14 08:56:14;;;;;;;7.95;4.15;;;;;;;26.98;44.21;99392.44;5004996;28;20125;-54
2022/09/14 09:07:35;;;;;;;12.57;4.95;;;;;;;27.57;43.47;99403.50;5107139;27;20388;-54
2022/09/14 09:10:04;;;;;;;6.85;4.53;;;;;;;27.66;43.06;99408.03;5061200;28;20147;-57
2022/09/14 09:12:43;;;;;;;12.32;5.60;;;;;;;27.80;43.23;99400.72;5091346;28;20156;-53
2022/09/14 09:15:20;;;;;;;9.43;5.03;;;;;;;27.86;42.89;99402.81;5104399;28;20050;-55
2022/09/14 09:17:51;;;;;;;8.52;5.13;;;;;;;28.00;42.64;99399.00;5099088;28;20048;-57
2022/09/14 09:20:22;;;;;;;9.30;4.93;;;;;;;27.84;42.30;99402.13;5103189;28;20118;-56
2022/09/14 09:25:43;;;;;;;11.23;5.32;;;;;;;27.63;42.36;99395.03;5034738;28;20399;-56
2022/09/14 09:28:12;;;;;;;9.10;5.97;;;;;;;27.49;42.44;99390.00;5024498;28;20070;-56
2022/09/14 09:30:40;;;;;;;10.00;5.30;;;;;;;27.42;42.60;99385.19;4998394;28;20149;-57
2022/09/14 09:33:15;;;;;;;7.85;4.63;;;;;;;27.64;42.85;99388.72;5000599;28;20602;-57
2022/09/14 09:35:42;;;;;;;9.15;5.13;;;;;;;27.55;42.41;99389.47;5028693;28;20054;-55
2022/09/14 09:38:15;;;;;;;10.20;5.38;;;;;;;27.37;42.74;99386.56;5031968;28;20046;-53
2022/09/14 09:40:46;;;;;;;7.25;4.90;;;;;;;27.45;42.54;99387.59;4990544;28;20095;-54
2022/09/14 09:43:17;;;;;;;9.63;5.53;;;;;;;27.64;43.23;99394.06;4993655;28;20129;-55
2022/09/14 09:46:02;;;;;;;10.20;5.00;;;;;;;27.42;42.82;99389.69;4988694;28;20130;-56
2022/09/14 09:48:44;;;;;;;12.13;5.60;;;;;;;27.01;42.59;99392.16;4998158;28;20479;-55
2022/09/14 09:51:14;;;;;;;9.85;6.40;;;;;;;26.51;43.53;99390.84;4990051;28;20057;-55
2022/09/14 09:53:47;;;;;;;11.63;5.85;;;;;;;26.07;43.88;99393.38;4995382;28;20134;-56
2022/09/14 09:56:18;;;;;;;11.88;6.00;;;;;;;25.71;44.72;99388.16;4992033;28;20074;-58
2022/09/14 09:58:50;;;;;;;14.75;5.93;;;;;;;25.77;45.26;99382.41;4997751;28;20153;-54
2022/09/14 10:01:27;;;;;;;12.93;5.63;;;;;;;26.17;45.72;99387.22;4996508;28;20129;-55
2022/09/14 10:04:23;;;;;;;12.82;6.18;;;;;;;26.45;44.82;99397.50;4996321;28;20046;-57
2022/09/14 10:06:53;;;;;;;9.20;5.95;;;;;;;26.33;43.96;99399.31;4983724;28;20133;-59
2022/09/14 10:09:22;;;;;;;13.55;6.15;;;;;;;26.00;44.55;99393.03;4991443;28;20059;-55
2022/09/14 10:11:59;;;;;;;10.23;5.68;;;;;;;26.09;45.49;99392.28;4992653;28;20112;-56
2022/09/14 10:17:16;;;;;;;12.77;5.75;;;;;;;26.29;43.83;99389.91;5031519;27;20954;-52
2022/09/14 10:19:52;;;;;;;13.45;6.88;;;;;;;26.14;44.19;99387.47;5022220;28;20080;-57
2022/09/14 10:30:40;;;;;;;12.75;6.50;;;;;;;26.58;44.90;99375.25;5063432;28;20883;-52
2022/09/14 10:33:12;;;;;;;12.27;6.28;;;;;;;26.79;45.07;99372.66;5019330;28;20072;-55
2022/09/14 10:41:03;;;;;;;11.55;7.18;;;;;;;27.38;43.12;99367.81;5052606;27;20394;-54
2022/09/14 10:46:12;;;;;;;13.23;6.20;;;;;;;26.78;42.39;99360.34;5077733;27;20393;-51
2022/09/14 10:54:25;;;;;;;12.00;5.88;;;;;;;25.80;42.44;99366.22;5124210;27;20394;-53
2022/09/14 10:57:19;;;;;;;13.35;6.95;;;;;;;25.46;43.53;99366.16;5068594;27;20078;-57
2022/09/14 11:26:49;;;;;;;9.15;4.43;;;;;;;23.91;46.40;99363.13;5030788;28;20414;-57
2022/09/14 11:35:02;;;;;;;13.18;4.35;;;;;;;23.43;47.01;99362.78;5094688;27;20914;-58
2022/09/14 11:37:38;;;;;;;10.57;4.85;;;;;;;23.26;47.44;99357.78;5060932;28;20140;-57
2022/09/14 11:42:56;;;;;;;9.23;4.68;;;;;;;22.97;47.70;99369.34;5121015;27;20895;-55
2022/09/14 11:45:29;;;;;;;9.93;4.18;;;;;;;23.00;48.45;99371.75;5059761;28;20128;-57
2022/09/14 11:48:05;;;;;;;12.93;5.53;;;;;;;22.97;47.70;99364.06;5054114;28;20055;-57
2022/09/14 11:50:56;;;;;;;9.63;5.30;;;;;;;22.96;48.62;99371.13;5072658;28;20158;-58
2022/09/14 11:53:24;;;;;;;14.35;6.13;;;;;;;22.94;48.26;99380.09;5074311;28;20051;-58
2022/09/14 11:55:51;;;;;;;10.77;6.57;;;;;;;22.86;48.17;99370.00;5065636;28;20040;-57
2022/09/14 11:58:22;;;;;;;11.77;6.18;;;;;;;22.87;48.67;99369.09;5072080;28;20051;-57
2022/09/14 12:03:50;;;;;;;13.10;8.23;;;;;;;22.70;48.12;99375.47;5085328;27;20390;-56
2022/09/14 12:11:53;;;;;;;11.65;7.15;;;;;;;23.20;49.07;99378.34;5067194;27;21136;-57
2022/09/14 12:19:37;;;;;;;9.68;5.90;;;;;;;23.45;47.88;99370.63;5099835;27;20867;-56
2022/09/14 12:27:41;;;;;;;8.30;7.03;;;;;;;23.26;47.44;99366.53;5061294;28;20918;-52
2022/09/14 12:44:31;;;;;;;5.80;3.42;;;;;;;23.61;47.13;99363.31;5078861;27;20398;-57
2022/09/14 13:47:33;;;;;;;8.23;4.28;;;;;;;23.06;45.46;99337.03;5004508;27;20412;-57
2022/09/14 13:50:00;;;;;;;9.75;4.75;;;;;;;22.97;46.05;99329.72;4969446;28;20125;-58
2022/09/14 13:52:29;;;;;;;5.15;3.70;;;;;;;22.96;46.76;99334.16;4964643;28;20059;-57
2022/09/14 13:55:27;;;;;;;6.38;3.80;;;;;;;22.90;46.85;99328.44;4989509;28;20110;-56
2022/09/14 13:58:19;;;;;;;5.03;3.50;;;;;;;22.79;46.22;99321.19;4969035;28;20082;-56
2022/09/14 14:03:38;;;;;;;6.95;4.43;;;;;;;23.04;44.76;99320.44;5052426;27;20400;-57
2022/09/14 14:06:26;;;;;;;6.45;2.80;;;;;;;22.76;45.22;99330.16;5020969;27;20112;-53
2022/09/14 14:09:04;;;;;;;5.88;2.67;;;;;;;22.71;45.78;99319.09;5021244;28;20088;-56
2022/09/14 14:28:22;;;;;;;7.15;3.05;;;;;;;22.61;46.39;99324.13;5113436;27;20407;-56
2022/09/14 14:30:49;;;;;;;9.57;2.88;;;;;;;22.57;46.21;99323.47;5092249;28;20504;-57
2022/09/14 14:33:18;;;;;;;5.18;2.33;;;;;;;22.51;46.28;99312.41;5062951;28;20083;-57
2022/09/14 14:35:47;;;;;;;7.28;3.17;;;;;;;22.45;47.11;99309.25;5083508;28;20403;-58
2022/09/14 14:38:15;;;;;;;;;;;;;;;22.27;47.90;99311.28;5098572;28;20052;-58
2022/09/14 14:40:42;;;;;;;6.75;2.55;;;;;;;22.34;47.30;99307.31;5098997;28;20008;-58
2022/09/14 14:43:17;;;;;;;7.18;3.42;;;;;;;22.32;47.50;99308.31;5100889;28;20127;-55
2022/09/14 14:45:44;;;;;;;7.03;2.28;;;;;;;22.29;47.88;99309.38;5102072;28;20143;-56
2022/09/14 14:48:11;;;;;;;5.90;2.92;;;;;;;22.25;48.27;99317.59;5099309;28;20047;-58
2022/09/14 14:50:38;;;;;;;7.60;2.70;;;;;;;22.18;48.74;99314.47;5098470;28;20063;-57
2022/09/14 14:53:05;;;;;;;8.55;3.20;;;;;;;22.12;48.69;99312.25;5102926;28;20167;-56
2022/09/14 14:55:34;;;;;;;11.55;3.22;;;;;;;22.06;48.41;99308.19;5099957;28;20515;-57
2022/09/14 14:58:07;;;;;;;7.43;2.47;;;;;;;22.01;48.40;99321.66;5099196;28;20046;-56
2022/09/14 15:00:37;;;;;;;6.03;2.50;;;;;;;21.94;48.68;99310.66;5100691;28;20363;-56
2022/09/14 15:03:03;;;;;;;12.15;3.25;;;;;;;21.85;49.23;99315.66;5100050;28;20052;-57
2022/09/14 15:05:31;;;;;;;8.50;2.83;;;;;;;21.78;49.20;99313.38;5100363;28;20104;-57
2022/09/14 15:07:58;;;;;;;7.35;2.22;;;;;;;21.73;49.38;99322.50;5095202;28;20051;-58
2022/09/14 15:10:26;;;;;;;5.55;2.70;;;;;;;21.68;49.52;99320.13;5101039;28;20481;-58
2022/09/14 15:12:53;;;;;;;4.60;2.45;;;;;;;21.60;49.48;99323.25;5099804;28;20063;-57
2022/09/14 15:15:23;;;;;;;7.85;3.45;;;;;;;21.52;49.74;99326.31;5101405;28;20097;-57
2022/09/14 15:17:51;;;;;;;7.07;2.72;;;;;;;21.45;50.01;99330.28;5093421;28;20035;-55
2022/09/14 15:20:18;;;;;;;7.47;2.55;;;;;;;21.35;49.55;99323.88;5098899;28;20150;-58
2022/09/14 15:22:46;;;;;;;8.38;2.30;;;;;;;21.27;49.87;99333.06;5100124;28;20120;-55
2022/09/14 15:25:14;;;;;;;5.50;2.58;;;;;;;21.21;50.31;99333.41;5098413;28;20128;-58
2022/09/14 15:27:41;;;;;;;5.25;2.20;;;;;;;21.16;50.26;99330.22;5099993;28;20487;-58
2022/09/14 15:30:09;;;;;;;8.52;2.28;;;;;;;21.11;49.98;99327.84;5099732;28;20076;-56
2022/09/14 15:32:35;;;;;;;5.10;1.80;;;;;;;21.06;50.51;99336.03;5097773;28;20102;-54
2022/09/14 15:35:04;;;;;;;5.72;2.42;;;;;;;21.05;50.47;99344.84;5099674;28;20043;-58
2022/09/14 15:37:30;;;;;;;7.47;2.17;;;;;;;21.00;50.61;99348.69;5096764;28;20127;-58
2022/09/14 15:39:57;;;;;;;8.73;2.10;;;;;;;20.99;50.90;99345.22;5084681;28;20466;-59
2022/09/14 15:42:24;;;;;;;6.90;2.15;;;;;;;20.95;50.65;99348.97;5085795;28;20044;-55
2022/09/14 15:44:51;;;;;;;7.20;2.30;;;;;;;20.95;50.78;99343.69;5085038;28;20712;-57